sensor_id;sensor_type;location;lat;lon;timestamp;P1;durP1;ratioP1;P2;durP2;ratioP2
1164;SDS011;571;50.930;6.926;2022-12-29T03:47:36;1.33;;;0.40;;
1164;SDS011;571;50.930;6.926;2022-12-29T03:50:03;0.83;;;0.60;;
1164;SDS011;571;50.930;6.926;2022-12-29T03:52:30;1.00;;;0.60;;
1164;SDS011;571;50.930;6.926;2022-12-29T03:54:57;0.80;;;0.60;;
1164;SDS011;571;50.930;6.926;2022-12-29T03:57:24;1.27;;;0.57;;
1164;SDS011;571;50.930;6.926;2022-12-29T03:59:51;0.67;;;0.43;;
1164;SDS011;571;50.930;6.926;2022-12-29T04:02:17;2.47;;;0.90;;
1164;SDS011;571;50.930;6.926;2022-12-29T04:04:45;0.70;;;0.60;;
1164;SDS011;571;50.930;6.926;2022-12-29T04:07:12;1.80;;;0.77;;
1164;SDS011;571;50.930;6.926;2022-12-29T04:09:39;1.07;;;0.60;;
1164;SDS011;571;50.930;6.926;2022-12-29T04:12:08;1.47;;;0.53;;
1164;SDS011;571;50.930;6.926;2022-12-29T04:14:35;1.03;;;0.73;;
1164;SDS011;571;50.930;6.926;2022-12-29T04:17:03;1.33;;;0.40;;
1164;SDS011;571;50.930;6.926;2022-12-29T04:19:29;0.90;;;0.50;;
1164;SDS011;571;50.930;6.926;2022-12-29T04:21:58;1.00;;;0.80;;
1164;SDS011;571;50.930;6.926;2022-12-29T04:24:24;0.70;;;0.53;;
1164;SDS011;571;50.930;6.926;2022-12-29T04:26:53;0.60;;;0.53;;
1164;SDS011;571;50.930;6.926;2022-12-29T04:29:20;0.50;;;0.37;;
1164;SDS011;571;50.930;6.926;2022-12-29T04:31:47;0.77;;;0.57;;
1164;SDS011;571;50.930;6.926;2022-12-29T04:34:14;0.70;;;0.43;;
1164;SDS011;571;50.930;6.926;2022-12-29T04:36:41;0.50;;;0.40;;
1164;SDS011;571;50.930;6.926;2022-12-29T04:39:10;0.70;;;0.40;;
1164;SDS011;571;50.930;6.926;2022-12-29T04:41:37;1.03;;;0.70;;
1164;SDS011;571;50.930;6.926;2022-12-29T04:44:09;1.57;;;0.57;;
1164;SDS011;571;50.930;6.926;2022-12-29T04:46:41;0.80;;;0.60;;
1164;SDS011;571;50.930;6.926;2022-12-29T04:49:10;0.70;;;0.50;;
1164;SDS011;571;50.930;6.926;2022-12-29T04:51:36;1.43;;;0.73;;
1164;SDS011;571;50.930;6.926;2022-12-29T04:54:04;4.00;;;0.60;;
1164;SDS011;571;50.930;6.926;2022-12-29T04:56:32;0.87;;;0.60;;
1164;SDS011;571;50.930;6.926;2022-12-29T04:58:59;3.23;;;0.77;;
1164;SDS011;571;50.930;6.926;2022-12-29T05:01:26;0.70;;;0.57;;
1164;SDS011;571;50.930;6.926;2022-12-29T05:03:54;1.13;;;0.87;;
1164;SDS011;571;50.930;6.926;2022-12-29T05:06:26;2.90;;;1.00;;
1164;SDS011;571;50.930;6.926;2022-12-29T05:09:04;0.77;;;0.40;;
1164;SDS011;571;50.930;6.926;2022-12-29T05:11:34;1.30;;;0.60;;
1164;SDS011;571;50.930;6.926;2022-12-29T05:14:01;0.97;;;0.60;;
1164;SDS011;571;50.930;6.926;2022-12-29T05:16:28;1.07;;;0.77;;
1164;SDS011;571;50.930;6.926;2022-12-29T05:18:56;0.80;;;0.53;;
1164;SDS011;571;50.930;6.926;2022-12-29T05:21:24;1.10;;;0.50;;
1164;SDS011;571;50.930;6.926;2022-12-29T05:23:51;0.70;;;0.57;;
1164;SDS011;571;50.930;6.926;2022-12-29T05:26:17;0.60;;;0.50;;
1164;SDS011;571;50.930;6.926;2022-12-29T05:28:47;0.90;;;0.63;;
1164;SDS011;571;50.930;6.926;2022-12-29T05:31:14;2.23;;;1.10;;
1164;SDS011;571;50.930;6.926;2022-12-29T05:33:42;0.57;;;0.47;;
1164;SDS011;571;50.930;6.926;2022-12-29T05:36:09;0.93;;;0.70;;
1164;SDS011;571;50.930;6.926;2022-12-29T05:38:36;1.83;;;0.50;;
1164;SDS011;571;50.930;6.926;2022-12-29T05:41:03;2.07;;;0.70;;
1164;SDS011;571;50.930;6.926;2022-12-29T05:43:29;1.20;;;0.70;;
1164;SDS011;571;50.930;6.926;2022-12-29T05:45:58;1.20;;;0.70;;
1164;SDS011;571;50.930;6.926;2022-12-29T05:48:24;1.80;;;0.83;;
1164;SDS011;571;50.930;6.926;2022-12-29T05:50:51;1.07;;;0.70;;
1164;SDS011;571;50.930;6.926;2022-12-29T05:53:18;3.30;;;0.80;;
1164;SDS011;571;50.930;6.926;2022-12-29T05:55:46;0.80;;;0.50;;
1164;SDS011;571;50.930;6.926;2022-12-29T05:58:13;0.70;;;0.40;;
1164;SDS011;571;50.930;6.926;2022-12-29T06:00:41;0.50;;;0.40;;
1164;SDS011;571;50.930;6.926;2022-12-29T06:03:09;0.80;;;0.50;;
1164;SDS011;571;50.930;6.926;2022-12-29T06:05:36;1.60;;;0.43;;
1164;SDS011;571;50.930;6.926;2022-12-29T06:08:03;0.93;;;0.50;;
1164;SDS011;571;50.930;6.926;2022-12-29T06:10:30;1.00;;;0.40;;
1164;SDS011;571;50.930;6.926;2022-12-29T06:12:57;1.13;;;0.80;;
1164;SDS011;571;50.930;6.926;2022-12-29T06:15:24;1.33;;;0.50;;
1164;SDS011;571;50.930;6.926;2022-12-29T06:17:51;0.73;;;0.60;;
1164;SDS011;571;50.930;6.926;2022-12-29T06:20:19;0.67;;;0.43;;
1164;SDS011;571;50.930;6.926;2022-12-29T06:22:46;1.07;;;0.53;;
1164;SDS011;571;50.930;6.926;2022-12-29T06:25:13;1.40;;;1.00;;
1164;SDS011;571;50.930;6.926;2022-12-29T06:27:40;1.83;;;1.73;;
1164;SDS011;571;50.930;6.926;2022-12-29T06:30:07;1.97;;;0.73;;
1164;SDS011;571;50.930;6.926;2022-12-29T06:32:35;1.17;;;0.50;;
1164;SDS011;571;50.930;6.926;2022-12-29T06:35:02;1.00;;;0.60;;
1164;SDS011;571;50.930;6.926;2022-12-29T06:37:30;1.23;;;0.77;;
1164;SDS011;571;50.930;6.926;2022-12-29T06:39:57;1.20;;;0.40;;
1164;SDS011;571;50.930;6.926;2022-12-29T06:42:24;2.00;;;0.60;;
1164;SDS011;571;50.930;6.926;2022-12-29T06:44:51;1.00;;;0.50;;
1164;SDS011;571;50.930;6.926;2022-12-29T06:47:18;2.10;;;0.60;;
1164;SDS011;571;50.930;6.926;2022-12-29T06:49:45;1.27;;;0.40;;
1164;SDS011;571;50.930;6.926;2022-12-29T06:52:15;0.70;;;0.60;;
1164;SDS011;571;50.930;6.926;2022-12-29T06:54:43;3.80;;;0.40;;
1164;SDS011;571;50.930;6.926;2022-12-29T06:57:12;2.10;;;0.90;;
1164;SDS011;571;50.930;6.926;2022-12-29T06:59:40;1.30;;;0.60;;
1164;SDS011;571;50.930;6.926;2022-12-29T07:02:08;1.17;;;0.40;;
1164;SDS011;571;50.930;6.926;2022-12-29T07:04:36;2.30;;;0.50;;
1164;SDS011;571;50.930;6.926;2022-12-29T07:07:03;2.43;;;0.53;;
1164;SDS011;571;50.930;6.926;2022-12-29T07:09:30;1.60;;;0.80;;
1164;SDS011;571;50.930;6.926;2022-12-29T07:11:58;0.40;;;0.30;;
1164;SDS011;571;50.930;6.926;2022-12-29T07:14:25;0.50;;;0.40;;
1164;SDS011;571;50.930;6.926;2022-12-29T07:16:52;1.70;;;0.50;;
1164;SDS011;571;50.930;6.926;2022-12-29T07:19:22;3.90;;;0.70;;
1164;SDS011;571;50.930;6.926;2022-12-29T07:21:51;1.67;;;0.70;;
1164;SDS011;571;50.930;6.926;2022-12-29T07:24:20;4.47;;;0.60;;
1164;SDS011;571;50.930;6.926;2022-12-29T07:26:47;1.17;;;0.50;;
1164;SDS011;571;50.930;6.926;2022-12-29T07:29:16;0.63;;;0.50;;
1164;SDS011;571;50.930;6.926;2022-12-29T07:31:43;0.60;;;0.40;;
1164;SDS011;571;50.930;6.926;2022-12-29T07:34:10;3.73;;;0.90;;
1164;SDS011;571;50.930;6.926;2022-12-29T07:36:37;1.37;;;0.40;;
1164;SDS011;571;50.930;6.926;2022-12-29T07:39:04;5.53;;;0.70;;
1164;SDS011;571;50.930;6.926;2022-12-29T07:41:31;1.23;;;0.47;;
1164;SDS011;571;50.930;6.926;2022-12-29T07:44:02;1.90;;;0.60;;
1164;SDS011;571;50.930;6.926;2022-12-29T07:46:31;1.90;;;0.77;;
1164;SDS011;571;50.930;6.926;2022-12-29T07:48:58;1.83;;;0.87;;
1164;SDS011;571;50.930;6.926;2022-12-29T07:51:25;0.70;;;0.43;;
1164;SDS011;571;50.930;6.926;2022-12-29T07:53:51;1.17;;;0.70;;
1164;SDS011;571;50.930;6.926;2022-12-29T07:56:21;2.70;;;1.30;;
1164;SDS011;571;50.930;6.926;2022-12-29T07:58:50;1.63;;;0.57;;
1164;SDS011;571;50.930;6.926;2022-12-29T08:01:18;1.00;;;0.60;;
1164;SDS011;571;50.930;6.926;2022-12-29T08:03:48;2.03;;;0.70;;
1164;SDS011;571;50.930;6.926;2022-12-29T08:06:17;0.57;;;0.50;;
1164;SDS011;571;50.930;6.926;2022-12-29T08:08:47;0.50;;;0.30;;
1164;SDS011;571;50.930;6.926;2022-12-29T08:11:17;1.50;;;0.77;;
1164;SDS011;571;50.930;6.926;2022-12-29T08:13:45;1.33;;;0.60;;
1164;SDS011;571;50.930;6.926;2022-12-29T08:16:12;1.00;;;0.50;;
1164;SDS011;571;50.930;6.926;2022-12-29T08:18:39;2.37;;;1.00;;
1164;SDS011;571;50.930;6.926;2022-12-29T08:21:07;1.90;;;0.70;;
1164;SDS011;571;50.930;6.926;2022-12-29T08:23:34;3.90;;;1.47;;
1164;SDS011;571;50.930;6.926;2022-12-29T08:26:06;1.40;;;0.87;;
1164;SDS011;571;50.930;6.926;2022-12-29T08:28:33;4.10;;;1.13;;
1164;SDS011;571;50.930;6.926;2022-12-29T08:31:01;4.50;;;1.10;;
1164;SDS011;571;50.930;6.926;2022-12-29T08:33:28;1.43;;;0.83;;
1164;SDS011;571;50.930;6.926;2022-12-29T08:35:58;2.40;;;1.20;;
1164;SDS011;571;50.930;6.926;2022-12-29T08:38:27;3.60;;;1.20;;
1164;SDS011;571;50.930;6.926;2022-12-29T08:40:54;5.03;;;0.97;;
1164;SDS011;571;50.930;6.926;2022-12-29T08:43:21;2.30;;;0.77;;
1164;SDS011;571;50.930;6.926;2022-12-29T08:45:48;2.03;;;1.20;;
1164;SDS011;571;50.930;6.926;2022-12-29T08:48:15;1.20;;;0.60;;
1164;SDS011;571;50.930;6.926;2022-12-29T08:50:48;1.23;;;0.70;;
1164;SDS011;571;50.930;6.926;2022-12-29T08:53:16;6.13;;;0.93;;
1164;SDS011;571;50.930;6.926;2022-12-29T08:55:56;0.80;;;0.60;;
1164;SDS011;571;50.930;6.926;2022-12-29T08:58:24;1.80;;;0.70;;
1164;SDS011;571;50.930;6.926;2022-12-29T09:00:52;2.43;;;0.80;;
1164;SDS011;571;50.930;6.926;2022-12-29T09:03:19;4.13;;;0.77;;
1164;SDS011;571;50.930;6.926;2022-12-29T09:05:48;2.53;;;0.87;;
1164;SDS011;571;50.930;6.926;2022-12-29T09:08:16;6.70;;;0.73;;
1164;SDS011;571;50.930;6.926;2022-12-29T09:10:45;4.93;;;0.90;;
1164;SDS011;571;50.930;6.926;2022-12-29T09:13:14;2.83;;;2.10;;
1164;SDS011;571;50.930;6.926;2022-12-29T09:15:43;4.50;;;1.60;;
1164;SDS011;571;50.930;6.926;2022-12-29T09:18:10;6.83;;;1.53;;
1164;SDS011;571;50.930;6.926;2022-12-29T09:20:38;5.77;;;1.40;;
1164;SDS011;571;50.930;6.926;2022-12-29T09:23:06;1.67;;;0.80;;
1164;SDS011;571;50.930;6.926;2022-12-29T09:25:33;3.07;;;0.90;;
1164;SDS011;571;50.930;6.926;2022-12-29T09:28:00;1.03;;;0.63;;
1164;SDS011;571;50.930;6.926;2022-12-29T09:30:33;1.70;;;0.87;;
1164;SDS011;571;50.930;6.926;2022-12-29T09:33:03;1.83;;;0.87;;
1164;SDS011;571;50.930;6.926;2022-12-29T09:35:30;3.03;;;0.93;;
1164;SDS011;571;50.930;6.926;2022-12-29T09:38:00;2.60;;;1.00;;
1164;SDS011;571;50.930;6.926;2022-12-29T09:40:28;5.00;;;1.23;;
1164;SDS011;571;50.930;6.926;2022-12-29T09:43:01;5.30;;;1.40;;
1164;SDS011;571;50.930;6.926;2022-12-29T09:45:52;1.37;;;0.90;;
1164;SDS011;571;50.930;6.926;2022-12-29T09:48:27;7.10;;;1.77;;
1164;SDS011;571;50.930;6.926;2022-12-29T09:51:00;2.03;;;0.70;;
1164;SDS011;571;50.930;6.926;2022-12-29T09:53:35;4.47;;;1.10;;
1164;SDS011;571;50.930;6.926;2022-12-29T09:56:04;4.40;;;1.03;;
1164;SDS011;571;50.930;6.926;2022-12-29T09:58:37;3.53;;;1.20;;
1164;SDS011;571;50.930;6.926;2022-12-29T10:01:13;2.23;;;0.40;;
1164;SDS011;571;50.930;6.926;2022-12-29T10:03:51;1.40;;;0.73;;
1164;SDS011;571;50.930;6.926;2022-12-29T10:06:24;3.47;;;1.10;;
1164;SDS011;571;50.930;6.926;2022-12-29T10:08:58;4.90;;;1.00;;
1164;SDS011;571;50.930;6.926;2022-12-29T10:11:33;1.30;;;0.87;;
1164;SDS011;571;50.930;6.926;2022-12-29T10:14:17;1.53;;;1.00;;
1164;SDS011;571;50.930;6.926;2022-12-29T10:16:57;1.67;;;1.07;;
1164;SDS011;571;50.930;6.926;2022-12-29T10:19:35;3.80;;;0.80;;
1164;SDS011;571;50.930;6.926;2022-12-29T10:22:17;4.80;;;1.50;;
1164;SDS011;571;50.930;6.926;2022-12-29T10:24:54;1.40;;;1.00;;
1164;SDS011;571;50.930;6.926;2022-12-29T10:27:22;5.43;;;1.10;;
1164;SDS011;571;50.930;6.926;2022-12-29T10:29:52;8.03;;;1.20;;
1164;SDS011;571;50.930;6.926;2022-12-29T10:32:26;2.27;;;0.97;;
1164;SDS011;571;50.930;6.926;2022-12-29T10:34:57;3.53;;;1.07;;
1164;SDS011;571;50.930;6.926;2022-12-29T10:37:33;1.90;;;0.73;;
1164;SDS011;571;50.930;6.926;2022-12-29T10:40:12;1.93;;;0.60;;
1164;SDS011;571;50.930;6.926;2022-12-29T10:42:45;5.00;;;1.10;;
1164;SDS011;571;50.930;6.926;2022-12-29T10:45:16;2.70;;;1.10;;
1164;SDS011;571;50.930;6.926;2022-12-29T10:47:50;2.03;;;0.87;;
1164;SDS011;571;50.930;6.926;2022-12-29T10:50:25;6.10;;;1.97;;
1164;SDS011;571;50.930;6.926;2022-12-29T10:52:54;3.70;;;1.40;;
1164;SDS011;571;50.930;6.926;2022-12-29T10:55:24;4.93;;;1.13;;
1164;SDS011;571;50.930;6.926;2022-12-29T10:57:55;2.43;;;0.87;;
1164;SDS011;571;50.930;6.926;2022-12-29T11:00:25;5.83;;;1.33;;
1164;SDS011;571;50.930;6.926;2022-12-29T11:05:54;1.67;;;0.80;;
1164;SDS011;571;50.930;6.926;2022-12-29T11:08:25;6.60;;;0.63;;
1164;SDS011;571;50.930;6.926;2022-12-29T11:10:58;3.40;;;1.00;;
1164;SDS011;571;50.930;6.926;2022-12-29T11:13:26;5.53;;;0.97;;
1164;SDS011;571;50.930;6.926;2022-12-29T11:15:54;6.40;;;1.10;;
1164;SDS011;571;50.930;6.926;2022-12-29T11:18:23;2.57;;;0.90;;
1164;SDS011;571;50.930;6.926;2022-12-29T11:20:54;1.57;;;0.70;;
1164;SDS011;571;50.930;6.926;2022-12-29T11:23:30;7.27;;;1.00;;
1164;SDS011;571;50.930;6.926;2022-12-29T11:28:46;7.23;;;1.80;;
1164;SDS011;571;50.930;6.926;2022-12-29T11:31:28;4.60;;;1.60;;
1164;SDS011;571;50.930;6.926;2022-12-29T11:33:56;2.30;;;0.90;;
1164;SDS011;571;50.930;6.926;2022-12-29T11:36:26;5.70;;;1.20;;
1164;SDS011;571;50.930;6.926;2022-12-29T11:38:54;2.70;;;1.03;;
1164;SDS011;571;50.930;6.926;2022-12-29T11:41:24;6.03;;;1.30;;
1164;SDS011;571;50.930;6.926;2022-12-29T11:43:53;2.90;;;1.10;;
1164;SDS011;571;50.930;6.926;2022-12-29T11:46:25;4.57;;;1.10;;
1164;SDS011;571;50.930;6.926;2022-12-29T11:48:57;8.30;;;1.43;;
1164;SDS011;571;50.930;6.926;2022-12-29T11:51:29;2.60;;;1.10;;
1164;SDS011;571;50.930;6.926;2022-12-29T11:54:00;1.83;;;0.90;;
1164;SDS011;571;50.930;6.926;2022-12-29T11:56:35;2.30;;;1.53;;
1164;SDS011;571;50.930;6.926;2022-12-29T11:59:34;1.80;;;0.97;;
1164;SDS011;571;50.930;6.926;2022-12-29T12:02:30;2.53;;;1.60;;
1164;SDS011;571;50.930;6.926;2022-12-29T12:05:08;1.77;;;1.00;;
1164;SDS011;571;50.930;6.926;2022-12-29T12:07:40;4.20;;;0.83;;
1164;SDS011;571;50.930;6.926;2022-12-29T12:13:05;8.63;;;1.07;;
1164;SDS011;571;50.930;6.926;2022-12-29T12:15:39;3.67;;;1.43;;
1164;SDS011;571;50.930;6.926;2022-12-29T12:18:08;0.93;;;0.60;;
1164;SDS011;571;50.930;6.926;2022-12-29T12:20:41;2.93;;;0.60;;
1164;SDS011;571;50.930;6.926;2022-12-29T12:23:17;6.20;;;1.87;;
1164;SDS011;571;50.930;6.926;2022-12-29T12:25:53;3.03;;;1.33;;
1164;SDS011;571;50.930;6.926;2022-12-29T12:28:32;2.43;;;1.30;;
1164;SDS011;571;50.930;6.926;2022-12-29T12:31:03;3.30;;;0.90;;
1164;SDS011;571;50.930;6.926;2022-12-29T12:33:38;2.33;;;1.00;;
1164;SDS011;571;50.930;6.926;2022-12-29T12:36:14;5.20;;;1.03;;
1164;SDS011;571;50.930;6.926;2022-12-29T12:38:54;3.87;;;2.20;;
1164;SDS011;571;50.930;6.926;2022-12-29T12:41:28;2.73;;;1.50;;
1164;SDS011;571;50.930;6.926;2022-12-29T12:44:06;1.50;;;1.10;;
1164;SDS011;571;50.930;6.926;2022-12-29T12:46:45;4.73;;;1.50;;
1164;SDS011;571;50.930;6.926;2022-12-29T12:49:36;2.50;;;1.10;;
1164;SDS011;571;50.930;6.926;2022-12-29T12:52:22;8.60;;;1.13;;
1164;SDS011;571;50.930;6.926;2022-12-29T12:55:02;2.30;;;1.30;;
1164;SDS011;571;50.930;6.926;2022-12-29T12:57:45;6.87;;;1.17;;
1164;SDS011;571;50.930;6.926;2022-12-29T13:00:20;4.43;;;1.30;;
1164;SDS011;571;50.930;6.926;2022-12-29T13:02:52;2.07;;;1.10;;
1164;SDS011;571;50.930;6.926;2022-12-29T13:05:33;2.57;;;1.07;;
1164;SDS011;571;50.930;6.926;2022-12-29T13:08:14;4.73;;;1.43;;
1164;SDS011;571;50.930;6.926;2022-12-29T13:11:05;3.73;;;1.27;;
1164;SDS011;571;50.930;6.926;2022-12-29T13:13:46;4.23;;;1.60;;
1164;SDS011;571;50.930;6.926;2022-12-29T13:16:24;2.93;;;0.77;;
1164;SDS011;571;50.930;6.926;2022-12-29T13:18:58;2.40;;;0.93;;
1164;SDS011;571;50.930;6.926;2022-12-29T13:21:33;3.53;;;1.53;;
1164;SDS011;571;50.930;6.926;2022-12-29T13:24:12;5.40;;;1.10;;
1164;SDS011;571;50.930;6.926;2022-12-29T13:26:44;9.47;;;1.63;;
1164;SDS011;571;50.930;6.926;2022-12-29T13:29:17;10.10;;;1.60;;
1164;SDS011;571;50.930;6.926;2022-12-29T13:31:50;3.77;;;1.00;;
1164;SDS011;571;50.930;6.926;2022-12-29T13:34:27;4.20;;;1.43;;
1164;SDS011;571;50.930;6.926;2022-12-29T13:37:03;3.87;;;2.07;;
1164;SDS011;571;50.930;6.926;2022-12-29T13:39:37;4.37;;;1.10;;
1164;SDS011;571;50.930;6.926;2022-12-29T13:42:07;10.03;;;1.83;;
1164;SDS011;571;50.930;6.926;2022-12-29T13:44:35;3.00;;;1.20;;
1164;SDS011;571;50.930;6.926;2022-12-29T13:47:06;3.30;;;1.07;;
1164;SDS011;571;50.930;6.926;2022-12-29T13:49:41;3.37;;;1.30;;
1164;SDS011;571;50.930;6.926;2022-12-29T13:52:10;5.57;;;1.20;;
1164;SDS011;571;50.930;6.926;2022-12-29T13:54:44;6.73;;;1.13;;
1164;SDS011;571;50.930;6.926;2022-12-29T13:57:25;2.57;;;1.20;;
1164;SDS011;571;50.930;6.926;2022-12-29T13:59:59;4.30;;;1.27;;
1164;SDS011;571;50.930;6.926;2022-12-29T14:02:31;2.70;;;1.53;;
1164;SDS011;571;50.930;6.926;2022-12-29T14:07:56;3.60;;;1.37;;
1164;SDS011;571;50.930;6.926;2022-12-29T14:10:32;3.03;;;1.13;;
1164;SDS011;571;50.930;6.926;2022-12-29T14:13:04;3.63;;;1.13;;
1164;SDS011;571;50.930;6.926;2022-12-29T14:15:37;4.90;;;1.70;;
1164;SDS011;571;50.930;6.926;2022-12-29T14:18:14;4.53;;;1.20;;
1164;SDS011;571;50.930;6.926;2022-12-29T14:20:47;1.90;;;1.33;;
1164;SDS011;571;50.930;6.926;2022-12-29T14:23:26;1.93;;;1.17;;
1164;SDS011;571;50.930;6.926;2022-12-29T14:26:10;2.37;;;1.47;;
1164;SDS011;571;50.930;6.926;2022-12-29T14:28:42;2.87;;;1.60;;
1164;SDS011;571;50.930;6.926;2022-12-29T14:37:17;4.70;;;1.43;;
1164;SDS011;571;50.930;6.926;2022-12-29T14:39:52;3.60;;;1.10;;
1164;SDS011;571;50.930;6.926;2022-12-29T14:42:31;6.00;;;1.67;;
1164;SDS011;571;50.930;6.926;2022-12-29T14:45:00;1.93;;;0.90;;
1164;SDS011;571;50.930;6.926;2022-12-29T14:47:34;3.53;;;0.80;;
1164;SDS011;571;50.930;6.926;2022-12-29T14:50:03;1.87;;;1.07;;
1164;SDS011;571;50.930;6.926;2022-12-29T14:52:32;3.73;;;1.03;;
1164;SDS011;571;50.930;6.926;2022-12-29T14:58:00;5.47;;;1.30;;
1164;SDS011;571;50.930;6.926;2022-12-29T15:00:29;4.57;;;1.50;;
1164;SDS011;571;50.930;6.926;2022-12-29T15:03:02;2.03;;;1.00;;
1164;SDS011;571;50.930;6.926;2022-12-29T15:05:32;5.37;;;1.20;;
1164;SDS011;571;50.930;6.926;2022-12-29T15:08:03;6.30;;;1.40;;
1164;SDS011;571;50.930;6.926;2022-12-29T15:10:34;6.97;;;1.40;;
1164;SDS011;571;50.930;6.926;2022-12-29T15:13:15;4.70;;;1.37;;
1164;SDS011;571;50.930;6.926;2022-12-29T15:15:43;6.80;;;1.40;;
1164;SDS011;571;50.930;6.926;2022-12-29T15:18:14;4.30;;;1.00;;
1164;SDS011;571;50.930;6.926;2022-12-29T15:20:49;6.40;;;2.17;;
1164;SDS011;571;50.930;6.926;2022-12-29T15:23:17;4.40;;;1.60;;
1164;SDS011;571;50.930;6.926;2022-12-29T15:25:47;5.60;;;1.57;;
1164;SDS011;571;50.930;6.926;2022-12-29T15:28:20;4.20;;;1.50;;
1164;SDS011;571;50.930;6.926;2022-12-29T15:30:51;1.87;;;1.20;;
1164;SDS011;571;50.930;6.926;2022-12-29T15:33:20;3.93;;;1.10;;
1164;SDS011;571;50.930;6.926;2022-12-29T15:35:49;8.00;;;2.03;;
1164;SDS011;571;50.930;6.926;2022-12-29T15:38:20;4.47;;;1.00;;
1164;SDS011;571;50.930;6.926;2022-12-29T15:40:51;4.90;;;1.50;;
1164;SDS011;571;50.930;6.926;2022-12-29T15:43:30;2.43;;;1.23;;
1164;SDS011;571;50.930;6.926;2022-12-29T15:46:11;3.47;;;1.40;;
1164;SDS011;571;50.930;6.926;2022-12-29T15:48:38;4.13;;;1.40;;
1164;SDS011;571;50.930;6.926;2022-12-29T15:51:09;4.53;;;1.03;;
1164;SDS011;571;50.930;6.926;2022-12-29T15:53:46;3.83;;;1.43;;
1164;SDS011;571;50.930;6.926;2022-12-29T15:56:14;6.40;;;1.57;;
1164;SDS011;571;50.930;6.926;2022-12-29T15:58:43;4.23;;;0.90;;
1164;SDS011;571;50.930;6.926;2022-12-29T16:01:19;4.73;;;1.37;;
1164;SDS011;571;50.930;6.926;2022-12-29T16:03:52;4.73;;;1.47;;
1164;SDS011;571;50.930;6.926;2022-12-29T16:06:27;5.57;;;1.17;;
1164;SDS011;571;50.930;6.926;2022-12-29T16:08:56;5.80;;;2.10;;
1164;SDS011;571;50.930;6.926;2022-12-29T16:11:25;7.37;;;1.30;;
1164;SDS011;571;50.930;6.926;2022-12-29T16:13:57;3.73;;;1.30;;
1164;SDS011;571;50.930;6.926;2022-12-29T16:16:25;2.70;;;1.23;;
1164;SDS011;571;50.930;6.926;2022-12-29T16:18:54;3.73;;;1.57;;
1164;SDS011;571;50.930;6.926;2022-12-29T16:21:23;5.40;;;2.40;;
1164;SDS011;571;50.930;6.926;2022-12-29T16:23:53;4.33;;;1.93;;
1164;SDS011;571;50.930;6.926;2022-12-29T16:26:22;3.97;;;1.70;;
1164;SDS011;571;50.930;6.926;2022-12-29T16:28:54;4.43;;;1.50;;
1164;SDS011;571;50.930;6.926;2022-12-29T16:31:32;2.67;;;1.43;;
1164;SDS011;571;50.930;6.926;2022-12-29T16:34:10;6.50;;;1.90;;
1164;SDS011;571;50.930;6.926;2022-12-29T16:36:40;5.63;;;1.63;;
1164;SDS011;571;50.930;6.926;2022-12-29T16:39:20;3.40;;;1.70;;
1164;SDS011;571;50.930;6.926;2022-12-29T16:41:54;4.70;;;1.30;;
1164;SDS011;571;50.930;6.926;2022-12-29T16:44:26;7.27;;;2.93;;
1164;SDS011;571;50.930;6.926;2022-12-29T16:47:01;8.73;;;2.10;;
1164;SDS011;571;50.930;6.926;2022-12-29T16:49:43;4.13;;;2.00;;
1164;SDS011;571;50.930;6.926;2022-12-29T16:52:17;5.00;;;1.90;;
1164;SDS011;571;50.930;6.926;2022-12-29T16:54:48;3.90;;;1.80;;
1164;SDS011;571;50.930;6.926;2022-12-29T16:57:22;5.87;;;1.97;;
1164;SDS011;571;50.930;6.926;2022-12-29T16:59:53;4.93;;;2.13;;
1164;SDS011;571;50.930;6.926;2022-12-29T17:02:23;6.13;;;1.90;;
1164;SDS011;571;50.930;6.926;2022-12-29T17:04:53;5.03;;;1.93;;
1164;SDS011;571;50.930;6.926;2022-12-29T17:07:20;6.00;;;2.37;;
1164;SDS011;571;50.930;6.926;2022-12-29T17:09:49;5.27;;;2.33;;
1164;SDS011;571;50.930;6.926;2022-12-29T17:12:18;7.70;;;2.90;;
1164;SDS011;571;50.930;6.926;2022-12-29T17:14:48;3.60;;;1.50;;
1164;SDS011;571;50.930;6.926;2022-12-29T17:17:21;3.47;;;1.97;;
1164;SDS011;571;50.930;6.926;2022-12-29T17:19:53;7.37;;;2.70;;
1164;SDS011;571;50.930;6.926;2022-12-29T17:22:24;4.03;;;1.70;;
1164;SDS011;571;50.930;6.926;2022-12-29T17:24:52;7.30;;;1.90;;
1164;SDS011;571;50.930;6.926;2022-12-29T17:27:22;4.80;;;2.13;;
1164;SDS011;571;50.930;6.926;2022-12-29T17:29:52;3.33;;;1.77;;
1164;SDS011;571;50.930;6.926;2022-12-29T17:32:23;4.13;;;1.63;;
1164;SDS011;571;50.930;6.926;2022-12-29T17:34:50;5.00;;;2.10;;
1164;SDS011;571;50.930;6.926;2022-12-29T17:37:23;4.10;;;1.73;;
1164;SDS011;571;50.930;6.926;2022-12-29T17:39:57;3.97;;;1.50;;
1164;SDS011;571;50.930;6.926;2022-12-29T17:42:24;8.03;;;2.50;;
1164;SDS011;571;50.930;6.926;2022-12-29T17:44:51;3.43;;;1.80;;
1164;SDS011;571;50.930;6.926;2022-12-29T17:47:17;11.50;;;2.53;;
1164;SDS011;571;50.930;6.926;2022-12-29T17:49:46;4.17;;;1.73;;
1164;SDS011;571;50.930;6.926;2022-12-29T17:52:13;3.63;;;1.90;;
1164;SDS011;571;50.930;6.926;2022-12-29T17:54:42;6.77;;;2.00;;
1164;SDS011;571;50.930;6.926;2022-12-29T17:57:12;6.97;;;2.13;;
1164;SDS011;571;50.930;6.926;2022-12-29T17:59:39;6.37;;;2.20;;
1164;SDS011;571;50.930;6.926;2022-12-29T18:02:17;4.43;;;2.73;;
1164;SDS011;571;50.930;6.926;2022-12-29T18:04:54;4.67;;;2.43;;
1164;SDS011;571;50.930;6.926;2022-12-29T18:07:21;9.00;;;2.70;;
1164;SDS011;571;50.930;6.926;2022-12-29T18:09:50;9.60;;;3.03;;
1164;SDS011;571;50.930;6.926;2022-12-29T18:12:28;14.07;;;5.40;;
1164;SDS011;571;50.930;6.926;2022-12-29T18:15:04;7.10;;;2.87;;
1164;SDS011;571;50.930;6.926;2022-12-29T18:17:32;8.53;;;3.30;;
1164;SDS011;571;50.930;6.926;2022-12-29T18:20:00;7.47;;;3.03;;
1164;SDS011;571;50.930;6.926;2022-12-29T18:22:27;5.43;;;2.60;;
1164;SDS011;571;50.930;6.926;2022-12-29T18:24:54;8.38;;;3.50;;
1164;SDS011;571;50.930;6.926;2022-12-29T18:27:21;3.30;;;2.90;;
1164;SDS011;571;50.930;6.926;2022-12-29T18:29:47;6.87;;;2.90;;
1164;SDS011;571;50.930;6.926;2022-12-29T18:32:15;13.17;;;3.43;;
1164;SDS011;571;50.930;6.926;2022-12-29T18:34:43;8.53;;;3.10;;
1164;SDS011;571;50.930;6.926;2022-12-29T18:37:11;6.10;;;3.33;;
1164;SDS011;571;50.930;6.926;2022-12-29T18:39:38;7.40;;;2.90;;
1164;SDS011;571;50.930;6.926;2022-12-29T18:42:05;5.40;;;2.00;;
1164;SDS011;571;50.930;6.926;2022-12-29T18:44:33;6.33;;;2.93;;
1164;SDS011;571;50.930;6.926;2022-12-29T18:47:01;7.20;;;2.60;;
1164;SDS011;571;50.930;6.926;2022-12-29T18:49:28;4.80;;;1.90;;
1164;SDS011;571;50.930;6.926;2022-12-29T18:51:55;6.30;;;2.60;;
1164;SDS011;571;50.930;6.926;2022-12-29T18:54:27;5.73;;;2.50;;
1164;SDS011;571;50.930;6.926;2022-12-29T18:56:55;6.50;;;2.50;;
1164;SDS011;571;50.930;6.926;2022-12-29T18:59:23;3.70;;;1.67;;
1164;SDS011;571;50.930;6.926;2022-12-29T19:01:50;8.00;;;2.37;;
1164;SDS011;571;50.930;6.926;2022-12-29T19:04:17;8.63;;;2.30;;
1164;SDS011;571;50.930;6.926;2022-12-29T19:06:44;6.70;;;2.80;;
1164;SDS011;571;50.930;6.926;2022-12-29T19:09:11;5.13;;;2.43;;
1164;SDS011;571;50.930;6.926;2022-12-29T19:11:39;4.67;;;1.97;;
1164;SDS011;571;50.930;6.926;2022-12-29T19:14:08;9.10;;;2.57;;
1164;SDS011;571;50.930;6.926;2022-12-29T19:16:40;8.10;;;2.50;;
1164;SDS011;571;50.930;6.926;2022-12-29T19:19:08;5.13;;;2.10;;
1164;SDS011;571;50.930;6.926;2022-12-29T19:21:45;6.37;;;2.10;;
1164;SDS011;571;50.930;6.926;2022-12-29T19:24:11;9.20;;;2.63;;
1164;SDS011;571;50.930;6.926;2022-12-29T19:26:40;9.00;;;2.93;;
1164;SDS011;571;50.930;6.926;2022-12-29T19:29:07;3.83;;;1.80;;
1164;SDS011;571;50.930;6.926;2022-12-29T19:31:38;8.70;;;3.23;;
1164;SDS011;571;50.930;6.926;2022-12-29T19:34:05;6.07;;;1.90;;
1164;SDS011;571;50.930;6.926;2022-12-29T19:36:32;2.50;;;1.47;;
1164;SDS011;571;50.930;6.926;2022-12-29T19:38:59;3.50;;;1.40;;
1164;SDS011;571;50.930;6.926;2022-12-29T19:41:25;6.80;;;2.17;;
1164;SDS011;571;50.930;6.926;2022-12-29T19:43:53;8.00;;;1.97;;
1164;SDS011;571;50.930;6.926;2022-12-29T19:46:20;8.33;;;2.63;;
1164;SDS011;571;50.930;6.926;2022-12-29T19:48:48;3.70;;;1.67;;
1164;SDS011;571;50.930;6.926;2022-12-29T19:51:15;4.20;;;1.90;;
1164;SDS011;571;50.930;6.926;2022-12-29T19:53:42;5.17;;;1.80;;
1164;SDS011;571;50.930;6.926;2022-12-29T19:56:09;10.30;;;1.90;;
1164;SDS011;571;50.930;6.926;2022-12-29T19:58:36;2.60;;;1.67;;